sensor_id;sensor_type;location;lat;lon;timestamp;pressure;altitude;pressure_sealevel;temperature;humidity
56006;BME280;41888;44.696;10.522;2023-03-04T00:02:02;100764.72;;;5.75;100.00
56006;BME280;41888;44.696;10.522;2023-03-04T00:04:28;100771.78;;;5.58;100.00
56006;BME280;41888;44.696;10.522;2023-03-04T00:06:54;100774.25;;;5.51;100.00
56006;BME280;41888;44.696;10.522;2023-03-04T00:09:21;100776.09;;;5.59;100.00
56006;BME280;41888;44.696;10.522;2023-03-04T00:11:47;100774.28;;;5.60;100.00
56006;BME280;41888;44.696;10.522;2023-03-04T00:14:13;100779.56;;;5.68;100.00
56006;BME280;41888;44.696;10.522;2023-03-04T00:16:39;100780.88;;;5.72;100.00
56006;BME280;41888;44.696;10.522;2023-03-04T00:19:05;100779.38;;;5.77;100.00
56006;BME280;41888;44.696;10.522;2023-03-04T00:21:33;100783.69;;;5.70;100.00
56006;BME280;41888;44.696;10.522;2023-03-04T00:23:59;100780.53;;;5.67;100.00
56006;BME280;41888;44.696;10.522;2023-03-04T00:26:25;100782.34;;;5.82;100.00
56006;BME280;41888;44.696;10.522;2023-03-04T00:28:52;100785.03;;;5.90;100.00
56006;BME280;41888;44.696;10.522;2023-03-04T00:31:18;100782.19;;;5.84;100.00
56006;BME280;41888;44.696;10.522;2023-03-04T00:33:44;100778.38;;;5.62;100.00
56006;BME280;41888;44.696;10.522;2023-03-04T00:36:10;100783.34;;;5.49;100.00
56006;BME280;41888;44.696;10.522;2023-03-04T00:38:37;100779.84;;;5.40;100.00
56006;BME280;41888;44.696;10.522;2023-03-04T00:41:03;100782.19;;;5.43;100.00
56006;BME280;41888;44.696;10.522;2023-03-04T00:43:29;100783.28;;;5.25;100.00
56006;BME280;41888;44.696;10.522;2023-03-04T00:45:57;100776.88;;;5.27;100.00
56006;BME280;41888;44.696;10.522;2023-03-04T00:48:24;100774.22;;;5.27;100.00
56006;BME280;41888;44.696;10.522;2023-03-04T00:50:50;100775.31;;;5.00;100.00
56006;BME280;41888;44.696;10.522;2023-03-04T00:53:19;100768.75;;;4.71;100.00
56006;BME280;41888;44.696;10.522;2023-03-04T00:55:45;100770.75;;;4.68;100.00
56006;BME280;41888;44.696;10.522;2023-03-04T00:58:12;100768.06;;;4.60;100.00
56006;BME280;41888;44.696;10.522;2023-03-04T01:00:38;100756.81;;;4.50;100.00
56006;BME280;41888;44.696;10.522;2023-03-04T01:03:04;100757.53;;;4.60;100.00
56006;BME280;41888;44.696;10.522;2023-03-04T01:05:30;100759.28;;;4.44;100.00
56006;BME280;41888;44.696;10.522;2023-03-04T01:07:59;100750.69;;;4.42;100.00
56006;BME280;41888;44.696;10.522;2023-03-04T01:10:25;100747.91;;;4.43;100.00
56006;BME280;41888;44.696;10.522;2023-03-04T01:12:51;100743.13;;;4.39;100.00
56006;BME280;41888;44.696;10.522;2023-03-04T01:15:17;100750.00;;;4.40;100.00
56006;BME280;41888;44.696;10.522;2023-03-04T01:17:43;100738.03;;;4.45;100.00
56006;BME280;41888;44.696;10.522;2023-03-04T01:20:11;100735.56;;;4.44;100.00
56006;BME280;41888;44.696;10.522;2023-03-04T01:22:38;100739.19;;;4.43;100.00
56006;BME280;41888;44.696;10.522;2023-03-04T01:25:04;100744.25;;;4.44;100.00
56006;BME280;41888;44.696;10.522;2023-03-04T01:27:31;100739.00;;;4.44;100.00
56006;BME280;41888;44.696;10.522;2023-03-04T01:29:57;100740.16;;;4.42;100.00
56006;BME280;41888;44.696;10.522;2023-03-04T01:32:23;100732.44;;;4.48;100.00
56006;BME280;41888;44.696;10.522;2023-03-04T01:34:49;100738.56;;;4.57;100.00
56006;BME280;41888;44.696;10.522;2023-03-04T01:37:15;100736.56;;;4.51;100.00
56006;BME280;41888;44.696;10.522;2023-03-04T01:39:42;100734.41;;;4.46;100.00
56006;BME280;41888;44.696;10.522;2023-03-04T01:42:20;100730.81;;;4.55;100.00
56006;BME280;41888;44.696;10.522;2023-03-04T01:44:47;100726.84;;;4.43;100.00
56006;BME280;41888;44.696;10.522;2023-03-04T01:47:14;100730.38;;;4.34;100.00
56006;BME280;41888;44.696;10.522;2023-03-04T01:49:41;100729.75;;;4.40;100.00
56006;BME280;41888;44.696;10.522;2023-03-04T01:52:12;100721.59;;;4.51;100.00
56006;BME280;41888;44.696;10.522;2023-03-04T01:54:39;100721.97;;;4.64;100.00
56006;BME280;41888;44.696;10.522;2023-03-04T01:57:17;100720.97;;;4.65;100.00
56006;BME280;41888;44.696;10.522;2023-03-04T01:59:44;100722.47;;;4.60;100.00
56006;BME280;41888;44.696;10.522;2023-03-04T02:02:11;100718.00;;;4.60;100.00
56006;BME280;41888;44.696;10.522;2023-03-04T02:04:39;100728.25;;;4.72;100.00
56006;BME280;41888;44.696;10.522;2023-03-04T02:07:06;100722.03;;;4.81;100.00
56006;BME280;41888;44.696;10.522;2023-03-04T02:09:33;100723.22;;;4.94;100.00
56006;BME280;41888;44.696;10.522;2023-03-04T02:12:01;100725.19;;;4.92;100.00
56006;BME280;41888;44.696;10.522;2023-03-04T02:14:27;100713.81;;;4.92;100.00
56006;BME280;41888;44.696;10.522;2023-03-04T02:16:53;100716.78;;;4.89;100.00
56006;BME280;41888;44.696;10.522;2023-03-04T02:22:06;100716.09;;;4.87;100.00
56006;BME280;41888;44.696;10.522;2023-03-04T02:24:42;100721.97;;;4.64;100.00
56006;BME280;41888;44.696;10.522;2023-03-04T02:27:10;100713.88;;;4.58;100.00
56006;BME280;41888;44.696;10.522;2023-03-04T02:29:37;100710.34;;;4.41;100.00
56006;BME280;41888;44.696;10.522;2023-03-04T02:32:03;100710.41;;;4.49;100.00
56006;BME280;41888;44.696;10.522;2023-03-04T02:34:34;100713.88;;;4.24;100.00
56006;BME280;41888;44.696;10.522;2023-03-04T02:37:01;100711.50;;;4.13;100.00
56006;BME280;41888;44.696;10.522;2023-03-04T02:39:40;100718.22;;;4.07;100.00
56006;BME280;41888;44.696;10.522;2023-03-04T02:42:07;100719.03;;;4.00;100.00
56006;BME280;41888;44.696;10.522;2023-03-04T02:44:35;100711.28;;;3.98;100.00
56006;BME280;41888;44.696;10.522;2023-03-04T02:47:05;100715.41;;;3.75;100.00
56006;BME280;41888;44.696;10.522;2023-03-04T02:49:33;100713.03;;;3.64;100.00
56006;BME280;41888;44.696;10.522;2023-03-04T02:52:04;100706.78;;;3.47;100.00
56006;BME280;41888;44.696;10.522;2023-03-04T02:54:31;100715.66;;;3.46;100.00
56006;BME280;41888;44.696;10.522;2023-03-04T02:56:59;100707.53;;;3.39;100.00
56006;BME280;41888;44.696;10.522;2023-03-04T02:59:26;100712.19;;;3.28;100.00
56006;BME280;41888;44.696;10.522;2023-03-04T03:01:52;100710.78;;;3.16;100.00
56006;BME280;41888;44.696;10.522;2023-03-04T03:04:19;100716.66;;;3.10;100.00
56006;BME280;41888;44.696;10.522;2023-03-04T03:06:46;100704.63;;;3.25;100.00
56006;BME280;41888;44.696;10.522;2023-03-04T03:12:35;100712.88;;;3.12;100.00
56006;BME280;41888;44.696;10.522;2023-03-04T03:15:01;100705.53;;;3.16;100.00
56006;BME280;41888;44.696;10.522;2023-03-04T03:17:27;100704.19;;;3.12;100.00
56006;BME280;41888;44.696;10.522;2023-03-04T03:19:53;100701.78;;;3.01;100.00
56006;BME280;41888;44.696;10.522;2023-03-04T03:22:19;100699.34;;;3.07;100.00
56006;BME280;41888;44.696;10.522;2023-03-04T03:24:45;100704.84;;;3.14;100.00
56006;BME280;41888;44.696;10.522;2023-03-04T03:27:12;100688.03;;;3.07;100.00
56006;BME280;41888;44.696;10.522;2023-03-04T03:29:38;100696.06;;;3.23;100.00
56006;BME280;41888;44.696;10.522;2023-03-04T03:32:04;100696.88;;;3.23;100.00
56006;BME280;41888;44.696;10.522;2023-03-04T03:34:30;100697.44;;;3.27;100.00
56006;BME280;41888;44.696;10.522;2023-03-04T03:36:56;100696.41;;;3.46;100.00
56006;BME280;41888;44.696;10.522;2023-03-04T03:39:23;100691.44;;;3.60;100.00
56006;BME280;41888;44.696;10.522;2023-03-04T03:41:49;100695.78;;;3.69;100.00
56006;BME280;41888;44.696;10.522;2023-03-04T03:44:15;100692.22;;;3.78;100.00
56006;BME280;41888;44.696;10.522;2023-03-04T03:46:41;100702.69;;;3.70;100.00
56006;BME280;41888;44.696;10.522;2023-03-04T03:49:08;100696.81;;;3.76;100.00
56006;BME280;41888;44.696;10.522;2023-03-04T03:51:34;100695.31;;;3.48;100.00
56006;BME280;41888;44.696;10.522;2023-03-04T03:54:00;100702.13;;;3.41;100.00
56006;BME280;41888;44.696;10.522;2023-03-04T03:56:26;100705.47;;;3.25;100.00
56006;BME280;41888;44.696;10.522;2023-03-04T03:58:52;100692.63;;;3.22;100.00
56006;BME280;41888;44.696;10.522;2023-03-04T04:01:18;100694.47;;;3.30;100.00
56006;BME280;41888;44.696;10.522;2023-03-04T04:03:45;100692.22;;;3.35;100.00
56006;BME280;41888;44.696;10.522;2023-03-04T04:06:11;100694.81;;;3.27;100.00
56006;BME280;41888;44.696;10.522;2023-03-04T04:08:37;100689.16;;;3.22;100.00
56006;BME280;41888;44.696;10.522;2023-03-04T04:11:03;100693.00;;;3.10;100.00
56006;BME280;41888;44.696;10.522;2023-03-04T04:13:30;100684.78;;;3.13;100.00
56006;BME280;41888;44.696;10.522;2023-03-04T04:15:56;100691.94;;;3.38;100.00
56006;BME280;41888;44.696;10.522;2023-03-04T04:18:23;100692.53;;;3.32;100.00
56006;BME280;41888;44.696;10.522;2023-03-04T04:20:51;100695.16;;;3.32;100.00
56006;BME280;41888;44.696;10.522;2023-03-04T04:23:18;100689.91;;;3.32;100.00
56006;BME280;41888;44.696;10.522;2023-03-04T04:25:44;100688.78;;;3.17;100.00
56006;BME280;41888;44.696;10.522;2023-03-04T04:28:10;100687.41;;;3.13;100.00
56006;BME280;41888;44.696;10.522;2023-03-04T04:30:37;100688.72;;;3.26;100.00
56006;BME280;41888;44.696;10.522;2023-03-04T04:33:03;100685.63;;;3.31;100.00
56006;BME280;41888;44.696;10.522;2023-03-04T04:35:34;100697.72;;;3.24;100.00
56006;BME280;41888;44.696;10.522;2023-03-04T04:38:03;100688.84;;;3.25;100.00
56006;BME280;41888;44.696;10.522;2023-03-04T04:40:30;100692.13;;;3.45;100.00
56006;BME280;41888;44.696;10.522;2023-03-04T04:42:56;100681.16;;;3.49;100.00
56006;BME280;41888;44.696;10.522;2023-03-04T04:45:23;100682.34;;;3.55;100.00
56006;BME280;41888;44.696;10.522;2023-03-04T04:47:50;100682.75;;;3.42;100.00
56006;BME280;41888;44.696;10.522;2023-03-04T04:50:16;100688.94;;;3.15;100.00
56006;BME280;41888;44.696;10.522;2023-03-04T04:52:43;100683.97;;;3.12;100.00
56006;BME280;41888;44.696;10.522;2023-03-04T04:55:09;100682.03;;;3.14;100.00
56006;BME280;41888;44.696;10.522;2023-03-04T04:57:36;100676.38;;;3.27;100.00
56006;BME280;41888;44.696;10.522;2023-03-04T05:00:04;100687.66;;;3.37;100.00
56006;BME280;41888;44.696;10.522;2023-03-04T05:02:31;100681.69;;;3.35;100.00
56006;BME280;41888;44.696;10.522;2023-03-04T05:05:05;100677.88;;;3.29;100.00
56006;BME280;41888;44.696;10.522;2023-03-04T05:07:32;100680.00;;;3.26;100.00
56006;BME280;41888;44.696;10.522;2023-03-04T05:09:58;100684.09;;;3.28;100.00
56006;BME280;41888;44.696;10.522;2023-03-04T05:12:24;100674.41;;;3.29;100.00
56006;BME280;41888;44.696;10.522;2023-03-04T05:14:51;100683.28;;;3.28;100.00
56006;BME280;41888;44.696;10.522;2023-03-04T05:17:17;100678.41;;;3.33;100.00
56006;BME280;41888;44.696;10.522;2023-03-04T05:19:43;100672.59;;;3.47;100.00
56006;BME280;41888;44.696;10.522;2023-03-04T05:22:09;100672.81;;;3.54;100.00
56006;BME280;41888;44.696;10.522;2023-03-04T05:24:35;100674.53;;;3.63;100.00
56006;BME280;41888;44.696;10.522;2023-03-04T05:27:01;100679.09;;;3.61;100.00
56006;BME280;41888;44.696;10.522;2023-03-04T05:29:28;100682.31;;;3.72;100.00
56006;BME280;41888;44.696;10.522;2023-03-04T05:31:54;100679.69;;;3.72;100.00
56006;BME280;41888;44.696;10.522;2023-03-04T05:34:20;100684.19;;;3.80;100.00
56006;BME280;41888;44.696;10.522;2023-03-04T05:36:47;100686.66;;;3.81;100.00
56006;BME280;41888;44.696;10.522;2023-03-04T05:39:13;100686.59;;;3.73;100.00
56006;BME280;41888;44.696;10.522;2023-03-04T05:41:39;100677.63;;;3.58;100.00
56006;BME280;41888;44.696;10.522;2023-03-04T05:44:05;100680.38;;;3.74;100.00
56006;BME280;41888;44.696;10.522;2023-03-04T05:46:31;100680.84;;;3.70;100.00
56006;BME280;41888;44.696;10.522;2023-03-04T05:48:57;100686.53;;;3.65;100.00
56006;BME280;41888;44.696;10.522;2023-03-04T05:51:24;100686.63;;;3.56;100.00
56006;BME280;41888;44.696;10.522;2023-03-04T05:53:50;100687.94;;;3.52;100.00
56006;BME280;41888;44.696;10.522;2023-03-04T05:56:18;100686.13;;;3.52;100.00
56006;BME280;41888;44.696;10.522;2023-03-04T05:58:44;100689.63;;;3.61;100.00
56006;BME280;41888;44.696;10.522;2023-03-04T06:01:12;100689.25;;;3.56;100.00
56006;BME280;41888;44.696;10.522;2023-03-04T06:03:39;100697.22;;;3.64;100.00
56006;BME280;41888;44.696;10.522;2023-03-04T06:06:06;100703.31;;;3.64;100.00
56006;BME280;41888;44.696;10.522;2023-03-04T06:08:32;100699.88;;;3.64;100.00
56006;BME280;41888;44.696;10.522;2023-03-04T06:10:58;100694.06;;;3.60;100.00
56006;BME280;41888;44.696;10.522;2023-03-04T06:13:25;100701.31;;;3.58;100.00
56006;BME280;41888;44.696;10.522;2023-03-04T06:15:56;100700.25;;;3.51;100.00
56006;BME280;41888;44.696;10.522;2023-03-04T06:18:23;100706.13;;;3.89;100.00
56006;BME280;41888;44.696;10.522;2023-03-04T06:20:49;100705.41;;;4.38;100.00
56006;BME280;41888;44.696;10.522;2023-03-04T06:23:16;100710.88;;;5.03;100.00
56006;BME280;41888;44.696;10.522;2023-03-04T06:25:42;100709.59;;;5.47;100.00
56006;BME280;41888;44.696;10.522;2023-03-04T06:28:08;100715.19;;;5.93;100.00
56006;BME280;41888;44.696;10.522;2023-03-04T06:30:34;100720.72;;;6.30;100.00
56006;BME280;41888;44.696;10.522;2023-03-04T06:33:01;100712.97;;;6.76;100.00
56006;BME280;41888;44.696;10.522;2023-03-04T06:35:27;100718.28;;;6.99;100.00
56006;BME280;41888;44.696;10.522;2023-03-04T06:37:53;100724.41;;;7.68;100.00
56006;BME280;41888;44.696;10.522;2023-03-04T06:40:19;100725.66;;;7.94;100.00
56006;BME280;41888;44.696;10.522;2023-03-04T06:42:45;100726.28;;;7.82;100.00
56006;BME280;41888;44.696;10.522;2023-03-04T06:45:12;100726.25;;;5.80;100.00
56006;BME280;41888;44.696;10.522;2023-03-04T06:47:38;100729.56;;;6.93;100.00
56006;BME280;41888;44.696;10.522;2023-03-04T06:50:05;100722.00;;;7.95;100.00
56006;BME280;41888;44.696;10.522;2023-03-04T06:52:31;100735.09;;;8.26;100.00
56006;BME280;41888;44.696;10.522;2023-03-04T06:54:57;100740.16;;;8.65;100.00
56006;BME280;41888;44.696;10.522;2023-03-04T06:57:24;100736.47;;;9.17;100.00
56006;BME280;41888;44.696;10.522;2023-03-04T06:59:50;100742.78;;;9.30;100.00
56006;BME280;41888;44.696;10.522;2023-03-04T07:02:16;100742.19;;;9.78;100.00
56006;BME280;41888;44.696;10.522;2023-03-04T07:04:42;100746.66;;;9.77;100.00
56006;BME280;41888;44.696;10.522;2023-03-04T07:07:09;100747.28;;;9.15;100.00
56006;BME280;41888;44.696;10.522;2023-03-04T07:09:35;100748.91;;;8.80;100.00
56006;BME280;41888;44.696;10.522;2023-03-04T07:12:01;100743.72;;;8.58;100.00
56006;BME280;41888;44.696;10.522;2023-03-04T07:14:28;100747.06;;;8.22;100.00
56006;BME280;41888;44.696;10.522;2023-03-04T07:16:54;100754.31;;;8.28;100.00
56006;BME280;41888;44.696;10.522;2023-03-04T07:19:21;100748.13;;;8.51;100.00
56006;BME280;41888;44.696;10.522;2023-03-04T07:21:47;100755.06;;;8.52;100.00
56006;BME280;41888;44.696;10.522;2023-03-04T07:24:13;100750.91;;;8.20;100.00
56006;BME280;41888;44.696;10.522;2023-03-04T07:26:39;100757.72;;;7.99;100.00
56006;BME280;41888;44.696;10.522;2023-03-04T07:29:05;100757.72;;;8.37;100.00
56006;BME280;41888;44.696;10.522;2023-03-04T07:31:33;100758.81;;;8.42;100.00
56006;BME280;41888;44.696;10.522;2023-03-04T07:34:05;100757.84;;;8.21;100.00
56006;BME280;41888;44.696;10.522;2023-03-04T07:36:33;100750.06;;;8.04;100.00
56006;BME280;41888;44.696;10.522;2023-03-04T07:39:00;100754.06;;;7.86;100.00
56006;BME280;41888;44.696;10.522;2023-03-04T07:41:27;100758.34;;;7.87;100.00
56006;BME280;41888;44.696;10.522;2023-03-04T07:43:56;100749.59;;;7.86;100.00
56006;BME280;41888;44.696;10.522;2023-03-04T07:46:23;100749.22;;;7.89;100.00
56006;BME280;41888;44.696;10.522;2023-03-04T07:48:50;100752.13;;;8.46;100.00
56006;BME280;41888;44.696;10.522;2023-03-04T07:51:18;100757.16;;;8.71;100.00
56006;BME280;41888;44.696;10.522;2023-03-04T07:53:46;100756.53;;;9.19;100.00
56006;BME280;41888;44.696;10.522;2023-03-04T07:56:16;100756.59;;;9.47;100.00
56006;BME280;41888;44.696;10.522;2023-03-04T07:58:43;100754.91;;;9.89;100.00
56006;BME280;41888;44.696;10.522;2023-03-04T08:01:11;100755.16;;;10.15;100.00
56006;BME280;41888;44.696;10.522;2023-03-04T08:03:37;100755.03;;;10.23;100.00
56006;BME280;41888;44.696;10.522;2023-03-04T08:06:05;100758.44;;;10.45;100.00
56006;BME280;41888;44.696;10.522;2023-03-04T08:08:32;100760.81;;;10.68;100.00
56006;BME280;41888;44.696;10.522;2023-03-04T08:10:58;100756.44;;;11.01;100.00
56006;BME280;41888;44.696;10.522;2023-03-04T08:13:24;100762.50;;;11.36;100.00
56006;BME280;41888;44.696;10.522;2023-03-04T08:15:50;100749.88;;;11.84;100.00
56006;BME280;41888;44.696;10.522;2023-03-04T08:18:16;100750.06;;;12.15;100.00
56006;BME280;41888;44.696;10.522;2023-03-04T08:20:42;100755.84;;;11.99;100.00
56006;BME280;41888;44.696;10.522;2023-03-04T08:23:12;100758.28;;;12.07;100.00
56006;BME280;41888;44.696;10.522;2023-03-04T08:25:40;100751.53;;;11.98;100.00
56006;BME280;41888;44.696;10.522;2023-03-04T08:28:07;100756.66;;;11.87;100.00
56006;BME280;41888;44.696;10.522;2023-03-04T08:30:34;100751.91;;;12.08;100.00
56006;BME280;41888;44.696;10.522;2023-03-04T08:33:02;100743.50;;;12.18;100.00
56006;BME280;41888;44.696;10.522;2023-03-04T08:35:28;100749.69;;;12.05;100.00
56006;BME280;41888;44.696;10.522;2023-03-04T08:37:54;100750.47;;;12.25;100.00
56006;BME280;41888;44.696;10.522;2023-03-04T08:40:20;100746.53;;;12.41;100.00
56006;BME280;41888;44.696;10.522;2023-03-04T08:42:46;100739.69;;;12.65;100.00
56006;BME280;41888;44.696;10.522;2023-03-04T08:45:13;100745.34;;;12.88;100.00
56006;BME280;41888;44.696;10.522;2023-03-04T08:47:39;100747.72;;;13.16;100.00
56006;BME280;41888;44.696;10.522;2023-03-04T08:50:06;100749.59;;;13.47;100.00
56006;BME280;41888;44.696;10.522;2023-03-04T08:52:33;100747.38;;;12.93;100.00
56006;BME280;41888;44.696;10.522;2023-03-04T08:54:59;100742.44;;;12.96;100.00
56006;BME280;41888;44.696;10.522;2023-03-04T08:57:25;100743.91;;;13.37;99.73
56006;BME280;41888;44.696;10.522;2023-03-04T08:59:51;100755.22;;;14.13;97.75
56006;BME280;41888;44.696;10.522;2023-03-04T09:02:17;100750.63;;;14.82;93.32
56006;BME280;41888;44.696;10.522;2023-03-04T09:04:43;100753.38;;;15.23;89.59
56006;BME280;41888;44.696;10.522;2023-03-04T09:07:10;100754.16;;;15.72;86.07
56006;BME280;41888;44.696;10.522;2023-03-04T09:09:36;100748.81;;;16.41;82.93
56006;BME280;41888;44.696;10.522;2023-03-04T09:12:02;100747.81;;;16.94;79.60
56006;BME280;41888;44.696;10.522;2023-03-04T09:14:28;100744.47;;;17.15;75.43
56006;BME280;41888;44.696;10.522;2023-03-04T09:16:55;100746.09;;;17.45;73.64
56006;BME280;41888;44.696;10.522;2023-03-04T09:19:21;100743.44;;;18.11;71.32
56006;BME280;41888;44.696;10.522;2023-03-04T09:21:47;100746.47;;;18.53;69.64
56006;BME280;41888;44.696;10.522;2023-03-04T09:24:14;100742.25;;;19.01;66.96
56006;BME280;41888;44.696;10.522;2023-03-04T09:26:40;100743.56;;;19.47;63.67
56006;BME280;41888;44.696;10.522;2023-03-04T09:29:06;100751.16;;;20.19;60.01
56006;BME280;41888;44.696;10.522;2023-03-04T09:31:32;100750.97;;;19.94;57.54
56006;BME280;41888;44.696;10.522;2023-03-04T09:33:59;100749.03;;;19.57;55.29
56006;BME280;41888;44.696;10.522;2023-03-04T09:36:25;100749.69;;;19.69;55.60
56006;BME280;41888;44.696;10.522;2023-03-04T09:38:51;100747.25;;;20.00;53.79
56006;BME280;41888;44.696;10.522;2023-03-04T09:41:26;100740.97;;;20.78;51.15
56006;BME280;41888;44.696;10.522;2023-03-04T09:43:55;100739.84;;;20.22;51.92
56006;BME280;41888;44.696;10.522;2023-03-04T09:46:29;100743.78;;;19.72;51.70
56006;BME280;41888;44.696;10.522;2023-03-04T09:48:57;100739.38;;;18.86;54.57
56006;BME280;41888;44.696;10.522;2023-03-04T09:54:23;100737.56;;;18.70;54.28
56006;BME280;41888;44.696;10.522;2023-03-04T09:56:59;100744.69;;;19.03;54.23
56006;BME280;41888;44.696;10.522;2023-03-04T10:00:18;100742.75;;;19.47;51.26
56006;BME280;41888;44.696;10.522;2023-03-04T10:02:23;100743.59;;;20.63;48.44
56006;BME280;41888;44.696;10.522;2023-03-04T10:04:58;100742.81;;;21.90;44.13
56006;BME280;41888;44.696;10.522;2023-03-04T10:07:34;100733.88;;;21.70;42.45
56006;BME280;41888;44.696;10.522;2023-03-04T10:10:18;100730.88;;;22.27;42.73
56006;BME280;41888;44.696;10.522;2023-03-04T10:12:45;100741.69;;;23.11;40.08
56006;BME280;41888;44.696;10.522;2023-03-04T10:15:38;100739.13;;;23.35;38.50
56006;BME280;41888;44.696;10.522;2023-03-04T10:21:54;100720.19;;;23.25;36.88
56006;BME280;41888;44.696;10.522;2023-03-04T10:24:25;100721.84;;;22.57;38.72
56006;BME280;41888;44.696;10.522;2023-03-04T10:27:04;100725.22;;;23.42;37.87
56006;BME280;41888;44.696;10.522;2023-03-04T10:29:32;100710.00;;;22.22;40.56
56006;BME280;41888;44.696;10.522;2023-03-04T10:31:59;100710.25;;;21.10;43.42
56006;BME280;41888;44.696;10.522;2023-03-04T10:34:25;100713.31;;;22.04;41.74
56006;BME280;41888;44.696;10.522;2023-03-04T10:39:25;100710.97;;;23.16;38.28
56006;BME280;41888;44.696;10.522;2023-03-04T10:41:58;100707.31;;;22.12;40.00
56006;BME280;41888;44.696;10.522;2023-03-04T10:44:26;100704.91;;;21.70;41.88
56006;BME280;41888;44.696;10.522;2023-03-04T10:46:54;100694.84;;;22.11;41.09
56006;BME280;41888;44.696;10.522;2023-03-04T10:49:22;100696.97;;;22.40;40.72
56006;BME280;41888;44.696;10.522;2023-03-04T10:52:14;100690.91;;;22.68;39.67
56006;BME280;41888;44.696;10.522;2023-03-04T10:54:48;100687.94;;;22.54;40.10
56006;BME280;41888;44.696;10.522;2023-03-04T11:00:01;100679.31;;;20.80;42.29
56006;BME280;41888;44.696;10.522;2023-03-04T11:02:45;100678.00;;;19.83;42.96
56006;BME280;41888;44.696;10.522;2023-03-04T11:07:48;100663.88;;;20.13;43.18
56006;BME280;41888;44.696;10.522;2023-03-04T11:10:30;100671.59;;;21.49;40.96
56006;BME280;41888;44.696;10.522;2023-03-04T11:13:23;100661.81;;;21.03;41.09
56006;BME280;41888;44.696;10.522;2023-03-04T11:18:18;100658.06;;;21.14;40.38
56006;BME280;41888;44.696;10.522;2023-03-04T11:20:48;100649.59;;;21.00;40.89
56006;BME280;41888;44.696;10.522;2023-03-04T11:23:19;100654.00;;;21.22;40.19
56006;BME280;41888;44.696;10.522;2023-03-04T11:26:12;100649.09;;;19.47;43.17
56006;BME280;41888;44.696;10.522;2023-03-04T11:31:41;100637.63;;;18.33;47.63
56006;BME280;41888;44.696;10.522;2023-03-04T11:34:28;100626.00;;;20.03;44.23
56006;BME280;41888;44.696;10.522;2023-03-04T11:37:07;100631.72;;;20.84;42.65
56006;BME280;41888;44.696;10.522;2023-03-04T11:45:14;100606.94;;;17.73;47.36
56006;BME280;41888;44.696;10.522;2023-03-04T11:53:10;100606.69;;;18.84;45.92
56006;BME280;41888;44.696;10.522;2023-03-04T12:06:48;100583.63;;;18.66;45.60
56006;BME280;41888;44.696;10.522;2023-03-04T12:25:39;100555.13;;;17.28;46.76
56006;BME280;41888;44.696;10.522;2023-03-04T12:42:25;100522.59;;;16.63;48.07
56006;BME280;41888;44.696;10.522;2023-03-04T12:55:45;100488.47;;;17.13;46.76
56006;BME280;41888;44.696;10.522;2023-03-04T12:58:22;100489.47;;;17.62;45.79
56006;BME280;41888;44.696;10.522;2023-03-04T13:16:35;100468.25;;;17.27;46.73
56006;BME280;41888;44.696;10.522;2023-03-04T13:24:57;100466.03;;;16.69;48.39
56006;BME280;41888;44.696;10.522;2023-03-04T13:27:43;100456.25;;;16.97;48.34
56006;BME280;41888;44.696;10.522;2023-03-04T13:43:45;100450.28;;;17.71;47.92
56006;BME280;41888;44.696;10.522;2023-03-04T13:51:37;100434.22;;;17.16;49.57
56006;BME280;41888;44.696;10.522;2023-03-04T13:57:17;100430.22;;;16.80;50.27
56006;BME280;41888;44.696;10.522;2023-03-04T13:59:55;100424.31;;;17.00;51.13
56006;BME280;41888;44.696;10.522;2023-03-04T14:02:23;100431.16;;;17.08;49.79
56006;BME280;41888;44.696;10.522;2023-03-04T14:04:57;100420.66;;;17.06;49.73
56006;BME280;41888;44.696;10.522;2023-03-04T14:07:31;100422.59;;;16.94;51.01
56006;BME280;41888;44.696;10.522;2023-03-04T14:12:57;100419.25;;;17.04;50.97
56006;BME280;41888;44.696;10.522;2023-03-04T14:15:30;100415.50;;;17.05;51.21
56006;BME280;41888;44.696;10.522;2023-03-04T14:18:00;100411.44;;;17.02;50.10
56006;BME280;41888;44.696;10.522;2023-03-04T14:20:37;100405.94;;;17.14;49.33
56006;BME280;41888;44.696;10.522;2023-03-04T14:23:23;100404.97;;;17.20;49.74
56006;BME280;41888;44.696;10.522;2023-03-04T14:25:49;100408.13;;;17.34;48.69
56006;BME280;41888;44.696;10.522;2023-03-04T14:28:18;100402.22;;;17.37;48.69
56006;BME280;41888;44.696;10.522;2023-03-04T14:30:55;100401.22;;;17.43;48.62
56006;BME280;41888;44.696;10.522;2023-03-04T14:33:27;100398.22;;;17.61;48.54
56006;BME280;41888;44.696;10.522;2023-03-04T14:35:59;100393.34;;;17.58;48.28
56006;BME280;41888;44.696;10.522;2023-03-04T14:38:34;100395.59;;;17.22;50.19
56006;BME280;41888;44.696;10.522;2023-03-04T14:41:24;100385.38;;;17.24;50.46
56006;BME280;41888;44.696;10.522;2023-03-04T14:43:53;100389.88;;;16.97;51.89
56006;BME280;41888;44.696;10.522;2023-03-04T14:46:21;100378.66;;;16.67;52.09
56006;BME280;41888;44.696;10.522;2023-03-04T14:48:52;100368.38;;;16.30;52.82
56006;BME280;41888;44.696;10.522;2023-03-04T14:51:38;100360.66;;;16.34;52.75
56006;BME280;41888;44.696;10.522;2023-03-04T14:54:21;100363.09;;;16.52;53.09
56006;BME280;41888;44.696;10.522;2023-03-04T14:56:50;100358.63;;;16.58;53.68
56006;BME280;41888;44.696;10.522;2023-03-04T14:59:16;100356.03;;;16.46;53.51
56006;BME280;41888;44.696;10.522;2023-03-04T15:01:42;100352.34;;;16.52;53.11
56006;BME280;41888;44.696;10.522;2023-03-04T15:04:12;100361.56;;;16.73;52.71